»·PEaware :: N333ZA KPRC-KFLG

N333ZA :: KPRC-KFLG

FLIGHT INFORMATION

Flight Status: Arrived
Operator: Privately registered:
United States
More flights under this callsign
Pilot: Judd H. (29974)
Aircraft: CESSNA 210 CENTURION
(C210)
More flights by this aircraft type
Origin: KPRC Love
United States
Destination: KFLG Flagstaff Pulliam
United States
More flights between these airports :: More routes between these airports
Route: DRK V12 OATES
File this flight plan on PilotEdge
Remarks:
Altitude:
(Current/Filed)
14,000ft
Speed:
(Current/Filed)
150kts
Departed: 02-Nov-20 12:27 AM
Arrived: 02-Nov-20 01:05 AM
Distance/Time
Traveled:
47nm/0:37
Distance/Time
To Go:
Arrived

Flight Plot

Page will automatically refresh every two minutes.

Flight plan parsing failed; only flown route is shown


Map Options




Map Legend


Flown Route
Filed Route
Departure Airport
Arrival Airport
Navaid (VOR, NDB)
Fix

Horizontal Profiles

Position Reports

Time Latitude Longitude Heading Altitude Ground
Speed
02-Nov-20 00:18 34.651367 -112.420381 308 5048ft 0kts
02-Nov-20 00:19 34.651367 -112.420381 308 5048ft 0kts
02-Nov-20 00:20 34.651367 -112.420381 308 5048ft 0kts
02-Nov-20 00:21 34.651368 -112.420383 308 5048ft 0kts
02-Nov-20 00:22 34.651370 -112.420385 309 5048ft 0kts
02-Nov-20 00:23 34.651371 -112.420387 309 5048ft 0kts
02-Nov-20 00:24 34.654759 -112.417623 41 5048ft 18kts
02-Nov-20 00:25 34.655829 -112.418037 221 5048ft 35kts
02-Nov-20 00:26 34.639611 -112.433641 214 5387ft 100kts
02-Nov-20 00:27 34.636647 -112.465419 317 6248ft 116kts
02-Nov-20 00:28 34.668890 -112.483167 356 7048ft 131kts
02-Nov-20 00:29 34.703150 -112.476437 72 8154ft 121kts
02-Nov-20 00:30 34.712057 -112.431415 77 8885ft 144kts
02-Nov-20 00:31 34.721196 -112.385455 77 10002ft 140kts
02-Nov-20 00:32 34.731744 -112.341226 74 11169ft 132kts
02-Nov-20 00:33 34.742560 -112.299538 76 12349ft 126kts
02-Nov-20 00:34 34.751520 -112.259495 77 13477ft 122kts
02-Nov-20 00:35 34.760943 -112.215614 77 14053ft 159kts
02-Nov-20 00:36 34.773358 -112.157704 76 14049ft 186kts
02-Nov-20 00:37 34.786796 -112.096013 75 14061ft 189kts
02-Nov-20 00:38 34.800312 -112.033768 75 14064ft 190kts
02-Nov-20 00:39 34.813803 -111.971476 76 14068ft 190kts
02-Nov-20 00:40 34.827419 -111.908407 77 14076ft 194kts
02-Nov-20 00:41 34.841201 -111.844359 77 14085ft 199kts
02-Nov-20 00:42 34.855379 -111.778332 77 14088ft 202kts
02-Nov-20 00:43 34.875727 -111.715236 41 14092ft 205kts
02-Nov-20 00:44 34.930590 -111.701099 6 14099ft 205kts
02-Nov-20 00:45 34.984728 -111.692672 6 14628ft 188kts
02-Nov-20 00:46 35.039422 -111.686160 4 14585ft 204kts
02-Nov-20 00:47 35.094802 -111.679702 6 14370ft 188kts
02-Nov-20 00:48 35.146435 -111.669009 33 14017ft 194kts
02-Nov-20 00:49 35.183312 -111.619933 45 13304ft 196kts
02-Nov-20 00:50 35.223636 -111.575554 43 12585ft 193kts
02-Nov-20 00:51 35.258984 -111.532291 48 12531ft 167kts
02-Nov-20 00:52 35.290700 -111.493124 46 12609ft 157kts
02-Nov-20 00:53 35.321656 -111.456334 45 12495ft 168kts
02-Nov-20 00:54 35.333091 -111.398798 89 11605ft 179kts
02-Nov-20 00:55 35.363211 -111.363343 348 11061ft 180kts
02-Nov-20 00:56 35.359226 -111.409625 222 10525ft 180kts
02-Nov-20 00:57 35.327723 -111.451542 224 10595ft 166kts
02-Nov-20 00:58 35.294315 -111.488518 222 10550ft 164kts
02-Nov-20 00:59 35.260820 -111.529095 222 9946ft 175kts
02-Nov-20 01:00 35.229924 -111.566416 224 9334ft 150kts
02-Nov-20 01:01 35.199738 -111.605063 222 8568ft 157kts
02-Nov-20 01:02 35.167843 -111.639911 221 7720ft 128kts
02-Nov-20 01:03 35.146080 -111.663085 217 7077ft 90kts
02-Nov-20 01:04 35.139051 -111.672324 226 7017ft 16kts
02-Nov-20 01:05 35.138502 -111.673741 312 7017ft 0kts
02-Nov-20 01:06 35.138502 -111.673741 312 7017ft 0kts
02-Nov-20 01:07 35.138502 -111.673741 312 7017ft 0kts
02-Nov-20 01:08 35.138502 -111.673741 312 7017ft 0kts
02-Nov-20 01:09 35.138502 -111.673741 312 7017ft 0kts

Navigation Log

Ident Type
Flight plan parsing failed, navigation log unavailable